createdAt,value
2024-01-27T00:04:13.690Z,3.10
2024-01-27T00:09:16.856Z,2.00
2024-01-27T00:14:19.955Z,2.00
2024-01-27T00:19:23.572Z,3.40
2024-01-27T00:24:26.967Z,2.00
2024-01-27T00:29:30.105Z,2.60
2024-01-27T00:34:33.199Z,2.60
2024-01-27T00:39:36.286Z,3.00
2024-01-27T00:44:39.590Z,2.70
2024-01-27T00:49:43.090Z,3.40
2024-01-27T00:54:46.158Z,3.90
2024-01-27T00:59:49.435Z,2.60
2024-01-27T01:04:52.536Z,2.80
2024-01-27T01:09:55.647Z,2.30
2024-01-27T01:14:58.966Z,2.10
2024-01-27T01:20:02.265Z,2.60
2024-01-27T01:25:06.013Z,2.00
2024-01-27T01:30:10.753Z,2.80
2024-01-27T01:35:14.287Z,3.20
2024-01-27T01:40:17.386Z,3.30
2024-01-27T01:45:21.822Z,2.90
2024-01-27T01:50:25.130Z,2.50
2024-01-27T01:55:28.236Z,5.30
2024-01-27T02:00:31.753Z,3.50
2024-01-27T02:05:35.840Z,3.10
2024-01-27T02:10:39.021Z,2.60
2024-01-27T02:15:42.152Z,2.40
2024-01-27T02:20:45.686Z,2.40
2024-01-27T02:25:49.040Z,2.40
2024-01-27T02:30:52.256Z,2.50
2024-01-27T02:35:55.419Z,1.90
2024-01-27T02:40:58.681Z,1.80
2024-01-27T02:46:01.677Z,2.20
2024-01-27T02:51:05.500Z,1.90
2024-01-27T02:56:11.476Z,1.90
2024-01-27T03:01:14.541Z,1.70
2024-01-27T03:06:17.754Z,1.80
2024-01-27T03:11:21.012Z,2.10
2024-01-27T03:16:24.131Z,1.90
2024-01-27T03:21:27.318Z,2.10
2024-01-27T03:26:31.018Z,1.40
2024-01-27T03:31:37.895Z,1.80
2024-01-27T03:36:41.716Z,1.70
2024-01-27T03:41:44.892Z,1.50
2024-01-27T03:46:49.434Z,1.70
2024-01-27T03:51:52.540Z,1.60
2024-01-27T03:56:56.140Z,1.40
2024-01-27T04:01:59.314Z,0.90
2024-01-27T04:07:03.381Z,1.30
2024-01-27T04:12:07.173Z,1.60
2024-01-27T04:17:10.242Z,1.20
2024-01-27T04:22:13.753Z,1.30
2024-01-27T04:27:16.993Z,1.10
2024-01-27T04:32:20.225Z,1.40
2024-01-27T04:37:23.287Z,1.20
2024-01-27T04:42:26.690Z,1.50
2024-01-27T04:47:29.934Z,1.30
2024-01-27T04:52:33.038Z,1.60
2024-01-27T04:57:36.302Z,1.40
2024-01-27T05:02:43.282Z,1.30
2024-01-27T05:07:46.453Z,1.40
2024-01-27T05:12:49.582Z,1.30
2024-01-27T05:17:52.940Z,1.30
2024-01-27T05:22:56.195Z,1.30
2024-01-27T05:27:59.416Z,1.10
2024-01-27T05:33:02.812Z,1.80
2024-01-27T05:38:06.042Z,1.50
2024-01-27T05:43:09.455Z,1.00
2024-01-27T05:48:12.862Z,1.40
2024-01-27T05:53:16.175Z,1.50
2024-01-27T05:58:22.362Z,1.70
2024-01-27T06:03:26.037Z,1.40
2024-01-27T06:08:29.182Z,1.70
2024-01-27T06:13:34.263Z,2.00
2024-01-27T06:18:38.133Z,1.20
2024-01-27T06:23:41.388Z,1.40
2024-01-27T06:28:44.508Z,1.40
2024-01-27T06:33:47.787Z,1.30
2024-01-27T06:38:51.080Z,1.50
2024-01-27T06:43:54.218Z,1.50
2024-01-27T06:48:57.377Z,1.40
2024-01-27T06:54:00.661Z,2.20
2024-01-27T06:59:03.763Z,2.50
2024-01-27T07:04:07.146Z,2.40
2024-01-27T07:09:10.624Z,2.40
2024-01-27T07:14:13.802Z,1.70
2024-01-27T07:19:17.815Z,1.50
2024-01-27T07:24:21.370Z,1.50
2024-01-27T07:29:24.564Z,2.00
2024-01-27T07:34:27.623Z,3.70
2024-01-27T07:39:30.916Z,3.10
2024-01-27T07:44:33.988Z,2.80
2024-01-27T07:49:37.208Z,2.40
2024-01-27T07:54:41.531Z,2.80
2024-01-27T07:59:44.748Z,2.30
2024-01-27T08:04:47.885Z,2.90
2024-01-27T08:09:50.965Z,3.20
2024-01-27T08:14:55.239Z,3.30
2024-01-27T08:19:58.325Z,3.70
2024-01-27T08:25:01.642Z,3.00
2024-01-27T08:30:05.791Z,3.90
2024-01-27T08:35:11.448Z,2.10
2024-01-27T08:40:15.972Z,2.00
2024-01-27T08:45:19.444Z,2.80
2024-01-27T08:50:23.223Z,2.90
2024-01-27T08:55:26.358Z,3.30
2024-01-27T09:00:29.956Z,3.10
2024-01-27T09:05:33.267Z,3.10
2024-01-27T09:10:36.476Z,4.30
2024-01-27T09:15:40.016Z,3.00
2024-01-27T09:20:43.720Z,1.60
2024-01-27T09:25:46.946Z,3.10
2024-01-27T09:30:50.470Z,2.20
2024-01-27T09:35:53.716Z,2.20
2024-01-27T09:40:57.387Z,3.30
2024-01-27T09:46:00.744Z,2.30
2024-01-27T09:51:06.375Z,1.10
2024-01-27T09:56:10.500Z,2.10
2024-01-27T10:01:13.568Z,2.50
2024-01-27T10:06:16.991Z,3.70
2024-01-27T10:11:22.282Z,2.90
2024-01-27T10:16:25.375Z,4.40
2024-01-27T10:21:28.790Z,3.10
2024-01-27T10:26:33.419Z,2.80
2024-01-27T10:31:39.321Z,2.70
2024-01-27T10:36:46.783Z,2.30
2024-01-27T10:41:51.078Z,3.30
2024-01-27T10:46:55.521Z,4.40
2024-01-27T10:52:02.804Z,4.40
2024-01-27T10:57:07.531Z,4.00
2024-01-27T11:02:14.279Z,2.30
2024-01-27T11:07:20.568Z,2.40
2024-01-27T11:12:25.468Z,1.90
2024-01-27T11:17:28.758Z,3.10
2024-01-27T11:22:34.996Z,2.50
2024-01-27T11:27:38.343Z,2.40
2024-01-27T11:32:42.377Z,4.20
2024-01-27T11:37:46.101Z,5.60
2024-01-27T11:42:57.054Z,3.50
2024-01-27T11:48:02.313Z,2.30
2024-01-27T11:53:11.049Z,2.30
2024-01-27T11:58:14.278Z,2.10
2024-01-27T12:03:17.827Z,2.70
2024-01-27T12:08:21.204Z,1.70
2024-01-27T12:13:24.511Z,2.40
2024-01-27T12:18:28.985Z,1.80
2024-01-27T12:23:32.161Z,1.50
2024-01-27T12:28:39.195Z,2.10
2024-01-27T12:33:50.360Z,2.10
2024-01-27T12:39:01.983Z,3.90
2024-01-27T12:44:06.825Z,2.70
2024-01-27T12:49:10.488Z,2.20
2024-01-27T12:54:13.781Z,1.40
2024-01-27T12:59:16.959Z,1.80
2024-01-27T13:04:20.175Z,1.80
2024-01-27T13:09:23.375Z,2.00
2024-01-27T13:14:26.603Z,2.00
2024-01-27T13:19:30.243Z,2.30
2024-01-27T13:24:34.032Z,1.80
2024-01-27T13:29:37.171Z,2.20
2024-01-27T13:34:40.499Z,2.70
2024-01-27T13:39:43.721Z,2.40
2024-01-27T13:44:47.742Z,2.60
2024-01-27T13:49:51.364Z,2.50
2024-01-27T13:54:54.672Z,2.30
2024-01-27T13:59:58.199Z,2.20
2024-01-27T14:05:01.322Z,4.50
2024-01-27T14:10:05.677Z,3.10
2024-01-27T14:15:09.944Z,2.00
2024-01-27T14:20:13.729Z,2.10
2024-01-27T14:25:17.190Z,2.70
2024-01-27T14:30:20.436Z,3.30
2024-01-27T14:35:23.827Z,1.70
2024-01-27T14:40:27.136Z,1.40
2024-01-27T14:45:31.635Z,2.40
2024-01-27T14:50:34.956Z,1.90
2024-01-27T14:55:38.714Z,2.10
2024-01-27T15:00:42.141Z,2.10
2024-01-27T15:05:45.692Z,2.50
2024-01-27T15:10:49.008Z,3.00
2024-01-27T15:15:52.187Z,3.10
2024-01-27T15:20:55.357Z,2.70
2024-01-27T15:25:58.603Z,1.90
2024-01-27T15:31:02.019Z,2.00
2024-01-27T15:36:05.645Z,1.70
2024-01-27T15:41:09.770Z,2.50
2024-01-27T15:46:13.011Z,2.10
2024-01-27T15:51:16.642Z,1.40
2024-01-27T15:56:19.819Z,2.00
2024-01-27T16:01:23.158Z,1.50
2024-01-27T16:06:26.499Z,1.50
2024-01-27T16:11:29.752Z,1.30
2024-01-27T16:16:32.862Z,2.30
2024-01-27T16:21:36.005Z,2.10
2024-01-27T16:26:39.175Z,2.70
2024-01-27T16:31:42.296Z,2.50
2024-01-27T16:36:46.325Z,2.30
2024-01-27T16:41:49.449Z,3.00
2024-01-27T16:46:52.653Z,2.40
2024-01-27T16:51:55.858Z,2.50
2024-01-27T16:56:59.046Z,3.50
2024-01-27T17:02:02.387Z,2.70
2024-01-27T17:07:05.490Z,2.40
2024-01-27T17:12:12.008Z,2.60
2024-01-27T17:17:15.192Z,3.10
2024-01-27T17:22:18.507Z,2.80
2024-01-27T17:27:21.740Z,3.80
2024-01-27T17:32:25.058Z,3.40
2024-01-27T17:37:28.447Z,3.00
2024-01-27T17:42:31.585Z,4.20
2024-01-27T17:47:39.218Z,4.50
2024-01-27T17:52:42.390Z,4.00
2024-01-27T17:57:45.820Z,2.70
2024-01-27T18:02:49.414Z,3.40
2024-01-27T18:07:52.528Z,3.10
2024-01-27T18:12:55.792Z,3.50
2024-01-27T18:17:59.300Z,3.70
2024-01-27T18:23:02.876Z,2.50
2024-01-27T18:28:06.564Z,1.80
2024-01-27T18:33:09.842Z,2.00
2024-01-27T18:38:13.239Z,2.60
2024-01-27T18:43:16.437Z,2.10
2024-01-27T18:48:21.171Z,2.00
2024-01-27T18:53:24.443Z,2.90
2024-01-27T18:58:27.610Z,3.20
2024-01-27T19:03:31.019Z,5.30
2024-01-27T19:08:34.247Z,3.40
2024-01-27T19:13:37.357Z,3.40
2024-01-27T19:18:41.090Z,3.30
2024-01-27T19:23:44.390Z,3.00
2024-01-27T19:28:47.807Z,4.90
2024-01-27T19:33:51.088Z,4.30
2024-01-27T19:38:54.629Z,4.60
2024-01-27T19:43:57.926Z,5.20
2024-01-27T19:49:02.677Z,5.50
2024-01-27T19:54:08.566Z,3.60
2024-01-27T19:59:13.982Z,3.80
2024-01-27T20:04:18.129Z,4.40
2024-01-27T20:09:28.200Z,4.30
2024-01-27T20:14:31.553Z,5.10
2024-01-27T20:19:34.931Z,6.10
2024-01-27T20:24:38.468Z,4.00
2024-01-27T20:29:41.708Z,5.00
2024-01-27T20:34:47.906Z,4.20
2024-01-27T20:39:51.280Z,4.80
2024-01-27T20:44:56.925Z,5.30
2024-01-27T20:50:04.443Z,5.00
2024-01-27T20:55:09.777Z,4.60
2024-01-27T21:00:13.483Z,5.30
2024-01-27T21:05:16.571Z,4.00
2024-01-27T21:10:19.728Z,5.50
2024-01-27T21:15:22.861Z,4.20
2024-01-27T21:20:25.995Z,4.80
2024-01-27T21:25:29.215Z,3.90
2024-01-27T21:30:32.792Z,3.90
2024-01-27T21:35:36.030Z,3.40
2024-01-27T21:40:42.821Z,4.30
2024-01-27T21:45:52.996Z,4.40
2024-01-27T21:50:59.990Z,4.50
2024-01-27T21:56:04.340Z,4.40
2024-01-27T22:01:08.030Z,4.60
2024-01-27T22:06:11.489Z,4.60
2024-01-27T22:11:14.691Z,4.90
2024-01-27T22:16:17.902Z,4.80
2024-01-27T22:21:21.047Z,3.80
2024-01-27T22:26:24.748Z,5.20
2024-01-27T22:31:32.040Z,6.00
2024-01-27T22:36:36.061Z,5.40
2024-01-27T22:41:41.249Z,6.50
2024-01-27T22:46:44.553Z,4.30
2024-01-27T22:51:50.166Z,5.30
2024-01-27T22:56:53.543Z,4.70
2024-01-27T23:01:56.714Z,4.30
2024-01-27T23:07:00.078Z,4.30
2024-01-27T23:12:03.225Z,7.80
2024-01-27T23:17:06.268Z,6.20
2024-01-27T23:22:09.276Z,7.80
2024-01-27T23:27:12.308Z,7.80
2024-01-27T23:32:15.399Z,4.80
2024-01-27T23:37:18.414Z,5.00
2024-01-27T23:42:21.647Z,5.10
2024-01-27T23:47:24.830Z,5.60
2024-01-27T23:52:28.970Z,5.70
2024-01-27T23:57:32.640Z,5.40
